Time;durP1;ratioP1;P1;durP2;ratioP2;P2;SDS_P1;SDS_P2;PMS_P1;PMS_P2;Temp;Humidity;BMP_temperature;BMP_pressure;BME280_temperature;BME280_humidity;BME280_pressure;Samples;Min_cycle;Max_cycle;Signal;HPM_P1;HPM_P2
2022/08/05 00:00:04;;;;;;;10.57;6.50;;;;;;;;;;502431;29;1239;-90
2022/08/05 00:00:20;;;;;;;11.33;7.10;;;;;;;;;;502592;29;1324;-91
2022/08/05 00:00:35;;;;;;;12.40;6.43;;;;;;;;;;502994;29;1346;-91
2022/08/05 00:00:51;;;;;;;12.80;6.20;;;;;;;;;;500491;29;1205;-90
2022/08/05 00:01:13;;;;;;;10.50;6.28;;;;;;;;;;500467;29;1358;-90
2022/08/05 00:01:29;;;;;;;10.48;6.30;;;;;;;;;;500259;29;1409;-90
2022/08/05 00:01:45;;;;;;;10.68;6.25;;;;;;;;;;498550;29;1162;-90
2022/08/05 00:02:00;;;;;;;10.77;6.50;;;;;;;;;;500176;29;1222;-90
2022/08/05 00:02:15;;;;;;;10.83;6.53;;;;;;;;;;500619;29;878;-90
2022/08/05 00:02:31;;;;;;;11.67;6.40;;;;;;;;;;500214;29;1236;-91
2022/08/05 00:02:47;;;;;;;11.20;6.15;;;;;;;;;;500239;29;1172;-90
2022/08/05 00:03:02;;;;;;;11.55;6.07;;;;;;;;;;500623;29;1204;-90
2022/08/05 00:03:18;;;;;;;13.97;6.20;;;;;;;;;;498598;29;1311;-90
2022/08/05 00:03:33;;;;;;;13.00;6.35;;;;;;;;;;500673;29;1308;-91
2022/08/05 00:03:50;;;;;;;11.63;6.30;;;;;;;;;;498837;29;1338;-91
2022/08/05 00:04:05;;;;;;;11.43;6.25;;;;;;;;;;502430;29;1506;-90
2022/08/05 00:04:21;;;;;;;11.17;6.10;;;;;;;;;;504646;29;1211;-91
2022/08/05 00:04:36;;;;;;;11.45;6.13;;;;;;;;;;504670;29;964;-91
2022/08/05 00:04:52;;;;;;;11.50;6.47;;;;;;;;;;504697;29;1172;-92
2022/08/05 00:05:07;;;;;;;13.32;6.40;;;;;;;;;;504407;29;1342;-91
2022/08/05 00:05:23;;;;;;;14.00;6.10;;;;;;;;;;504494;29;1180;-92
2022/08/05 00:05:38;;;;;;;11.57;6.32;;;;;;;;;;504755;29;1992;-90
2022/08/05 00:05:53;;;;;;;9.70;6.50;;;;;;;;;;504386;29;890;-90
2022/08/05 00:06:09;;;;;;;9.73;6.23;;;;;;;;;;506320;29;1215;-89
2022/08/05 00:06:26;;;;;;;11.45;6.45;;;;;;;;;;504344;29;1327;-91
2022/08/05 00:06:41;;;;;;;12.82;6.60;;;;;;;;;;504173;29;1543;-91
2022/08/05 00:06:56;;;;;;;12.50;6.50;;;;;;;;;;504748;29;913;-91
2022/08/05 00:07:12;;;;;;;11.80;6.27;;;;;;;;;;504384;29;1167;-90
2022/08/05 00:07:27;;;;;;;13.38;6.40;;;;;;;;;;503305;29;1216;-91
2022/08/05 00:07:42;;;;;;;15.60;6.53;;;;;;;;;;502537;29;1270;-91
2022/08/05 00:07:58;;;;;;;14.33;6.50;;;;;;;;;;502440;29;1288;-91
2022/08/05 00:08:13;;;;;;;12.15;6.50;;;;;;;;;;506217;29;1196;-91
2022/08/05 00:08:29;;;;;;;10.53;6.23;;;;;;;;;;504464;29;1409;-91
2022/08/05 00:08:44;;;;;;;10.27;5.93;;;;;;;;;;504500;29;1218;-91
2022/08/05 00:09:00;;;;;;;11.63;6.10;;;;;;;;;;504444;29;1266;-91
2022/08/05 00:09:16;;;;;;;10.55;6.30;;;;;;;;;;506328;29;1292;-91
2022/08/05 00:09:31;;;;;;;9.13;6.23;;;;;;;;;;506680;29;892;-91
2022/08/05 00:09:46;;;;;;;10.70;6.20;;;;;;;;;;504502;29;1316;-91
2022/08/05 00:10:03;;;;;;;12.80;6.37;;;;;;;;;;502753;29;1196;-91
2022/08/05 00:10:18;;;;;;;12.40;6.30;;;;;;;;;;502507;29;1240;-91
2022/08/05 00:10:34;;;;;;;9.73;5.90;;;;;;;;;;502496;29;1309;-91
2022/08/05 00:10:49;;;;;;;10.33;5.90;;;;;;;;;;500791;29;1163;-92
2022/08/05 00:11:11;;;;;;;11.43;6.50;;;;;;;;;;500698;29;1180;-91
2022/08/05 00:11:27;;;;;;;11.48;6.68;;;;;;;;;;498716;29;1271;-91
2022/08/05 00:11:42;;;;;;;12.10;6.55;;;;;;;;;;502581;29;1252;-91
2022/08/05 00:12:01;;;;;;;11.87;6.37;;;;;;;;;;502742;29;1184;-90
2022/08/05 00:12:16;;;;;;;11.05;6.28;;;;;;;;;;502591;29;1358;-89
2022/08/05 00:12:32;;;;;;;13.10;6.30;;;;;;;;;;504401;29;1243;-89
2022/08/05 00:12:47;;;;;;;13.37;6.53;;;;;;;;;;502449;29;1207;-90
2022/08/05 00:13:02;;;;;;;10.55;6.60;;;;;;;;;;504390;29;1347;-89
2022/08/05 00:13:19;;;;;;;10.23;6.50;;;;;;;;;;502555;29;1353;-89
2022/08/05 00:13:37;;;;;;;10.77;6.50;;;;;;;;;;500517;29;1295;-90
2022/08/05 00:13:52;;;;;;;10.05;6.65;;;;;;;;;;500680;29;1366;-89
2022/08/05 00:14:07;;;;;;;10.93;6.67;;;;;;;;;;502528;29;1296;-89
2022/08/05 00:14:23;;;;;;;10.55;6.55;;;;;;;;;;502646;29;1385;-90
2022/08/05 00:14:38;;;;;;;12.80;6.57;;;;;;;;;;500705;29;1504;-89
2022/08/05 00:14:57;;;;;;;13.45;6.45;;;;;;;;;;502498;29;1231;-89
2022/08/05 00:15:12;;;;;;;13.13;6.72;;;;;;;;;;502621;29;1408;-91
2022/08/05 00:15:27;;;;;;;13.98;7.07;;;;;;;;;;502682;29;1941;-91
2022/08/05 00:15:43;;;;;;;13.10;6.90;;;;;;;;;;504405;29;1318;-91
2022/08/05 00:15:59;;;;;;;12.77;6.80;;;;;;;;;;504731;29;1208;-91
2022/08/05 00:16:14;;;;;;;11.85;6.70;;;;;;;;;;506426;29;1195;-91
2022/08/05 00:16:30;;;;;;;11.30;6.75;;;;;;;;;;502530;29;1246;-90
2022/08/05 00:16:45;;;;;;;11.40;6.70;;;;;;;;;;504445;29;1319;-91
2022/08/05 00:17:01;;;;;;;11.55;6.68;;;;;;;;;;502574;29;1227;-91
2022/08/05 00:17:16;;;;;;;11.80;7.00;;;;;;;;;;506550;29;1325;-91
2022/08/05 00:17:32;;;;;;;11.27;6.88;;;;;;;;;;504476;29;1199;-91
2022/08/05 00:17:47;;;;;;;12.67;6.87;;;;;;;;;;506368;29;1185;-91
2022/08/05 00:18:02;;;;;;;13.87;7.10;;;;;;;;;;506357;29;1211;-90
2022/08/05 00:18:18;;;;;;;13.45;6.90;;;;;;;;;;508473;29;1168;-90
2022/08/05 00:18:33;;;;;;;12.27;6.90;;;;;;;;;;504804;29;1263;-91
2022/08/05 00:18:49;;;;;;;12.60;6.97;;;;;;;;;;504406;29;1497;-91
2022/08/05 00:19:04;;;;;;;14.80;7.10;;;;;;;;;;502532;29;1204;-90
2022/08/05 00:19:21;;;;;;;13.30;6.97;;;;;;;;;;504561;29;1240;-91
2022/08/05 00:19:37;;;;;;;12.18;6.82;;;;;;;;;;502561;29;1413;-91
2022/08/05 00:19:52;;;;;;;11.88;6.80;;;;;;;;;;504462;29;1319;-91
2022/08/05 00:20:08;;;;;;;12.43;6.60;;;;;;;;;;504531;29;1310;-91
2022/08/05 00:20:23;;;;;;;12.63;6.60;;;;;;;;;;502512;29;1221;-90
2022/08/05 00:20:39;;;;;;;11.27;6.40;;;;;;;;;;504449;29;1335;-91
2022/08/05 00:20:54;;;;;;;10.33;6.30;;;;;;;;;;504517;29;1245;-91
2022/08/05 00:21:11;;;;;;;11.63;6.47;;;;;;;;;;503027;29;1406;-91
2022/08/05 00:21:26;;;;;;;12.27;6.70;;;;;;;;;;500693;29;1384;-91
2022/08/05 00:21:42;;;;;;;10.95;6.80;;;;;;;;;;500556;29;1332;-90
2022/08/05 00:21:57;;;;;;;9.97;6.57;;;;;;;;;;504148;29;1249;-91
2022/08/05 00:22:13;;;;;;;9.45;6.53;;;;;;;;;;506430;29;1234;-90
2022/08/05 00:22:28;;;;;;;9.93;6.50;;;;;;;;;;506198;29;1260;-90
2022/08/05 00:22:46;;;;;;;10.33;6.70;;;;;;;;;;506228;29;1425;-91
2022/08/05 00:23:02;;;;;;;11.45;7.35;;;;;;;;;;502334;29;1343;-88
2022/08/05 00:23:18;;;;;;;12.93;7.35;;;;;;;;;;504434;29;1449;-89
2022/08/05 00:23:35;;;;;;;11.40;7.03;;;;;;;;;;506409;29;1289;-89
2022/08/05 00:23:51;;;;;;;13.30;7.30;;;;;;;;;;506317;29;1305;-91
2022/08/05 00:24:06;;;;;;;13.63;7.50;;;;;;;;;;506418;29;798;-90
2022/08/05 00:24:21;;;;;;;12.17;7.30;;;;;;;;;;508323;29;1404;-91
2022/08/05 00:24:37;;;;;;;11.13;6.77;;;;;;;;;;504422;29;1278;-90
2022/08/05 00:24:52;;;;;;;11.07;6.65;;;;;;;;;;502579;29;1243;-91
2022/08/05 00:25:08;;;;;;;12.27;6.77;;;;;;;;;;502553;29;854;-92
2022/08/05 00:25:23;;;;;;;11.07;6.95;;;;;;;;;;502478;29;1494;-91
2022/08/05 00:25:39;;;;;;;10.97;7.17;;;;;;;;;;500436;29;1931;-91
2022/08/05 00:25:54;;;;;;;11.90;7.32;;;;;;;;;;502517;29;1211;-91
2022/08/05 00:26:10;;;;;;;10.77;6.83;;;;;;;;;;504530;29;1272;-91
2022/08/05 00:26:25;;;;;;;10.35;6.70;;;;;;;;;;504540;29;933;-91
2022/08/05 00:26:41;;;;;;;10.83;6.60;;;;;;;;;;504428;29;1273;-91
2022/08/05 00:26:57;;;;;;;9.88;6.40;;;;;;;;;;506396;29;1279;-91
2022/08/05 00:27:12;;;;;;;11.65;6.55;;;;;;;;;;506295;29;1286;-90
2022/08/05 00:27:29;;;;;;;12.90;6.70;;;;;;;;;;504412;29;1157;-91
2022/08/05 00:27:44;;;;;;;10.10;6.68;;;;;;;;;;502502;29;1291;-91
2022/08/05 00:28:03;;;;;;;10.70;6.80;;;;;;;;;;502481;29;1306;-91
2022/08/05 00:28:18;;;;;;;11.50;6.93;;;;;;;;;;504210;29;1362;-91
2022/08/05 00:28:37;;;;;;;12.25;7.18;;;;;;;;;;502429;29;1207;-91
2022/08/05 00:28:52;;;;;;;13.60;7.43;;;;;;;;;;504077;29;1374;-90
2022/08/05 00:29:08;;;;;;;13.30;7.27;;;;;;;;;;504194;29;1282;-91
2022/08/05 00:29:23;;;;;;;13.35;7.40;;;;;;;;;;504582;29;885;-91
2022/08/05 00:29:39;;;;;;;11.37;7.20;;;;;;;;;;502704;29;1207;-90
2022/08/05 00:29:54;;;;;;;11.27;6.90;;;;;;;;;;502594;29;1188;-90
2022/08/05 00:30:10;;;;;;;11.82;7.13;;;;;;;;;;502738;29;938;-91
2022/08/05 00:30:25;;;;;;;12.05;7.30;;;;;;;;;;501544;29;1275;-90
2022/08/05 00:30:41;;;;;;;12.17;7.10;;;;;;;;;;502413;29;1234;-90
2022/08/05 00:30:57;;;;;;;12.73;7.10;;;;;;;;;;501011;29;1446;-90
2022/08/05 00:31:12;;;;;;;11.57;7.20;;;;;;;;;;500849;29;1208;-91
2022/08/05 00:31:31;;;;;;;9.48;6.97;;;;;;;;;;502536;29;1365;-90
2022/08/05 00:31:51;;;;;;;11.45;7.68;;;;;;;;;;500595;29;1477;-89
2022/08/05 00:32:11;;;;;;;12.35;8.10;;;;;;;;;;506247;29;1428;-89
2022/08/05 00:32:26;;;;;;;12.27;7.65;;;;;;;;;;504435;29;1401;-89
2022/08/05 00:32:42;;;;;;;13.53;7.60;;;;;;;;;;502449;29;1180;-89
2022/08/05 00:32:57;;;;;;;12.23;7.50;;;;;;;;;;502508;29;1265;-89
2022/08/05 00:33:15;;;;;;;12.53;7.70;;;;;;;;;;500561;29;1472;-89
2022/08/05 00:33:31;;;;;;;12.48;7.57;;;;;;;;;;500511;29;1270;-89
2022/08/05 00:33:47;;;;;;;10.35;7.18;;;;;;;;;;502528;29;1259;-88
2022/08/05 00:34:04;;;;;;;8.90;6.93;;;;;;;;;;504417;29;1311;-89
2022/08/05 00:34:19;;;;;;;10.88;7.45;;;;;;;;;;506416;29;1322;-89
2022/08/05 00:34:35;;;;;;;12.55;7.65;;;;;;;;;;502495;29;1272;-89
2022/08/05 00:34:50;;;;;;;13.33;7.97;;;;;;;;;;502563;29;1148;-89
2022/08/05 00:35:09;;;;;;;13.35;8.18;;;;;;;;;;502340;29;1334;-89
2022/08/05 00:35:24;;;;;;;11.95;8.10;;;;;;;;;;502420;29;1512;-90
2022/08/05 00:35:39;;;;;;;13.33;7.97;;;;;;;;;;502636;29;906;-91
2022/08/05 00:35:55;;;;;;;12.82;7.68;;;;;;;;;;504306;29;1354;-90
2022/08/05 00:36:10;;;;;;;10.53;7.50;;;;;;;;;;502517;29;1255;-91
2022/08/05 00:36:26;;;;;;;10.32;7.53;;;;;;;;;;504468;29;1224;-90
2022/08/05 00:36:41;;;;;;;11.23;7.67;;;;;;;;;;504541;29;789;-90
2022/08/05 00:36:57;;;;;;;12.93;7.55;;;;;;;;;;503028;29;1359;-88
2022/08/05 00:37:12;;;;;;;14.43;7.80;;;;;;;;;;502710;29;1168;-90
2022/08/05 00:37:28;;;;;;;14.35;8.20;;;;;;;;;;504402;29;1418;-90
2022/08/05 00:37:43;;;;;;;13.27;8.07;;;;;;;;;;502431;29;1180;-91
2022/08/05 00:37:59;;;;;;;14.73;8.17;;;;;;;;;;500628;29;1263;-91
2022/08/05 00:38:14;;;;;;;16.27;8.50;;;;;;;;;;502421;29;1307;-91
2022/08/05 00:38:30;;;;;;;14.43;8.73;;;;;;;;;;502451;29;898;-91
2022/08/05 00:38:45;;;;;;;13.13;8.63;;;;;;;;;;502465;29;795;-91
2022/08/05 00:39:00;;;;;;;13.80;8.13;;;;;;;;;;500619;29;1291;-90
2022/08/05 00:39:16;;;;;;;13.23;7.82;;;;;;;;;;500902;29;1338;-91
2022/08/05 00:39:31;;;;;;;14.23;8.43;;;;;;;;;;500892;29;1169;-91
2022/08/05 00:39:46;;;;;;;18.40;8.90;;;;;;;;;;502548;29;1357;-91
2022/08/05 00:40:02;;;;;;;19.05;8.65;;;;;;;;;;502692;29;838;-90
2022/08/05 00:40:19;;;;;;;14.57;8.35;;;;;;;;;;504109;29;1288;-90
2022/08/05 00:40:45;;;;;;;13.40;8.40;;;;;;;;;;504324;29;1258;-91
2022/08/05 00:41:01;;;;;;;12.90;8.75;;;;;;;;;;506270;29;1263;-90
2022/08/05 00:41:30;;;;;;;13.63;8.93;;;;;;;;;;504279;29;1311;-89
2022/08/05 00:41:47;;;;;;;14.45;9.40;;;;;;;;;;504206;29;1427;-90
2022/08/05 00:42:02;;;;;;;13.65;9.30;;;;;;;;;;502342;29;1265;-90
2022/08/05 00:42:32;;;;;;;14.93;9.13;;;;;;;;;;504388;29;1320;-91
2022/08/05 00:42:47;;;;;;;13.73;8.73;;;;;;;;;;504578;29;1040;-91
2022/08/05 00:43:04;;;;;;;13.30;8.70;;;;;;;;;;504455;29;1354;-91
2022/08/05 00:43:19;;;;;;;13.93;8.70;;;;;;;;;;504461;29;1270;-91
2022/08/05 00:43:35;;;;;;;13.60;8.40;;;;;;;;;;502940;29;1415;-91
2022/08/05 00:43:51;;;;;;;13.70;8.60;;;;;;;;;;504819;29;1240;-90
2022/08/05 00:44:06;;;;;;;13.25;8.75;;;;;;;;;;504279;29;1199;-90
2022/08/05 00:44:22;;;;;;;14.47;8.73;;;;;;;;;;504411;29;1442;-90
2022/08/05 00:44:38;;;;;;;15.05;8.68;;;;;;;;;;504477;29;908;-91
2022/08/05 00:44:53;;;;;;;13.05;8.43;;;;;;;;;;504322;29;984;-91
2022/08/05 00:45:09;;;;;;;11.80;8.40;;;;;;;;;;504406;29;1219;-91
2022/08/05 00:45:24;;;;;;;11.30;8.60;;;;;;;;;;502429;29;1211;-90
2022/08/05 00:45:40;;;;;;;11.40;8.30;;;;;;;;;;504314;29;1911;-90
2022/08/05 00:45:55;;;;;;;12.77;8.30;;;;;;;;;;504789;29;807;-91
2022/08/05 00:46:10;;;;;;;13.98;8.80;;;;;;;;;;506405;29;888;-91
2022/08/05 00:46:26;;;;;;;15.93;9.33;;;;;;;;;;506235;29;1219;-90
2022/08/05 00:46:41;;;;;;;15.55;9.30;;;;;;;;;;504514;29;1345;-90
2022/08/05 00:46:57;;;;;;;13.37;8.43;;;;;;;;;;503974;29;1176;-89
2022/08/05 00:47:13;;;;;;;12.55;8.07;;;;;;;;;;502691;29;1212;-90
2022/08/05 00:47:28;;;;;;;11.77;8.10;;;;;;;;;;504857;29;1196;-91
2022/08/05 00:47:44;;;;;;;11.73;8.10;;;;;;;;;;502439;29;811;-91
2022/08/05 00:47:59;;;;;;;12.13;8.03;;;;;;;;;;500464;29;1281;-90
2022/08/05 00:48:19;;;;;;;12.98;8.30;;;;;;;;;;500745;29;822;-91
2022/08/05 00:48:35;;;;;;;13.98;8.55;;;;;;;;;;502441;29;1228;-90
2022/08/05 00:48:50;;;;;;;13.00;8.27;;;;;;;;;;502513;29;1305;-90
2022/08/05 00:49:06;;;;;;;13.27;8.15;;;;;;;;;;503394;29;1264;-90
2022/08/05 00:49:21;;;;;;;15.10;8.38;;;;;;;;;;501732;29;1188;-91
2022/08/05 00:49:37;;;;;;;15.53;8.40;;;;;;;;;;500510;29;1324;-91
2022/08/05 00:49:52;;;;;;;15.13;8.37;;;;;;;;;;500624;29;1148;-91
2022/08/05 00:50:09;;;;;;;14.07;8.40;;;;;;;;;;500604;29;1427;-92
2022/08/05 00:50:24;;;;;;;12.60;8.10;;;;;;;;;;500591;29;1357;-91
2022/08/05 00:50:41;;;;;;;12.50;8.05;;;;;;;;;;502910;29;1201;-91
2022/08/05 00:50:56;;;;;;;11.55;7.90;;;;;;;;;;506136;29;1310;-91
2022/08/05 00:51:13;;;;;;;11.43;7.90;;;;;;;;;;504276;29;1393;-91
2022/08/05 00:51:29;;;;;;;13.32;8.10;;;;;;;;;;506135;29;1270;-90
2022/08/05 00:51:45;;;;;;;13.10;8.30;;;;;;;;;;505241;29;1806;-91
2022/08/05 00:52:01;;;;;;;12.73;8.25;;;;;;;;;;504332;29;1374;-91
2022/08/05 00:52:16;;;;;;;14.93;8.33;;;;;;;;;;504227;29;1212;-91
2022/08/05 00:52:31;;;;;;;16.00;8.40;;;;;;;;;;502552;29;853;-90
2022/08/05 00:52:47;;;;;;;14.57;8.30;;;;;;;;;;500597;29;1345;-91
2022/08/05 00:53:02;;;;;;;12.93;8.47;;;;;;;;;;500570;29;1197;-91
2022/08/05 00:53:21;;;;;;;12.82;8.50;;;;;;;;;;500593;29;1321;-91
2022/08/05 00:53:37;;;;;;;13.65;8.40;;;;;;;;;;499483;29;1398;-91
2022/08/05 00:53:52;;;;;;;14.70;8.13;;;;;;;;;;500577;29;846;-91
2022/08/05 00:54:08;;;;;;;14.63;8.00;;;;;;;;;;500515;29;1198;-91
2022/08/05 00:54:23;;;;;;;12.93;7.70;;;;;;;;;;500583;29;1004;-91
2022/08/05 00:54:38;;;;;;;11.27;7.45;;;;;;;;;;501300;29;1189;-90
2022/08/05 00:54:54;;;;;;;11.57;7.57;;;;;;;;;;504001;29;1361;-91
2022/08/05 00:55:11;;;;;;;13.20;7.90;;;;;;;;;;504227;29;1219;-89
2022/08/05 00:55:26;;;;;;;13.20;8.05;;;;;;;;;;502296;29;1400;-90
2022/08/05 00:55:42;;;;;;;10.83;7.43;;;;;;;;;;502456;29;933;-90
2022/08/05 00:55:58;;;;;;;11.02;7.22;;;;;;;;;;502370;29;1278;-90
2022/08/05 00:56:16;;;;;;;11.83;7.50;;;;;;;;;;504323;29;897;-90
2022/08/05 00:56:32;;;;;;;12.07;7.63;;;;;;;;;;502456;29;1261;-90
2022/08/05 00:56:47;;;;;;;11.60;7.60;;;;;;;;;;502597;29;953;-91
2022/08/05 00:57:03;;;;;;;9.93;7.43;;;;;;;;;;502462;29;1223;-90
2022/08/05 00:57:18;;;;;;;10.15;7.15;;;;;;;;;;500462;29;1341;-89
2022/08/05 00:57:34;;;;;;;11.18;6.97;;;;;;;;;;502410;29;1256;-90
2022/08/05 00:57:49;;;;;;;12.40;7.37;;;;;;;;;;500527;29;1270;-90
2022/08/05 00:58:05;;;;;;;12.30;7.55;;;;;;;;;;504218;29;1289;-89
2022/08/05 00:58:20;;;;;;;12.00;7.33;;;;;;;;;;502444;29;1220;-91
2022/08/05 00:58:36;;;;;;;11.33;7.10;;;;;;;;;;502360;29;1284;-90
2022/08/05 00:58:51;;;;;;;11.45;7.10;;;;;;;;;;500317;29;1346;-89
2022/08/05 00:59:07;;;;;;;10.63;6.87;;;;;;;;;;498495;29;1215;-90
2022/08/05 00:59:22;;;;;;;9.43;6.80;;;;;;;;;;500616;29;1249;-90
2022/08/05 00:59:38;;;;;;;10.15;7.22;;;;;;;;;;502302;29;1220;-90
2022/08/05 00:59:53;;;;;;;10.97;7.53;;;;;;;;;;502511;29;929;-91
2022/08/05 01:00:10;;;;;;;12.30;7.63;;;;;;;;;;504420;29;1439;-91
2022/08/05 01:00:29;;;;;;;12.43;7.50;;;;;;;;;;504440;29;1286;-90
2022/08/05 01:00:46;;;;;;;12.07;7.38;;;;;;;;;;504330;29;1419;-90
2022/08/05 01:01:02;;;;;;;11.65;7.07;;;;;;;;;;504370;29;1428;-90
2022/08/05 01:01:17;;;;;;;10.95;7.00;;;;;;;;;;502511;29;1444;-91
2022/08/05 01:01:33;;;;;;;10.80;7.00;;;;;;;;;;500517;29;1150;-90
2022/08/05 01:01:48;;;;;;;9.57;6.82;;;;;;;;;;502480;29;1279;-90
2022/08/05 01:02:03;;;;;;;9.73;6.93;;;;;;;;;;502432;29;1387;-91
2022/08/05 01:02:19;;;;;;;10.60;7.25;;;;;;;;;;502464;29;1183;-90
2022/08/05 01:02:34;;;;;;;10.10;7.33;;;;;;;;;;500546;29;1346;-90
2022/08/05 01:02:50;;;;;;;9.87;7.17;;;;;;;;;;500628;29;806;-91
2022/08/05 01:03:06;;;;;;;10.25;6.93;;;;;;;;;;500402;29;1482;-90
2022/08/05 01:03:21;;;;;;;11.70;7.13;;;;;;;;;;500982;29;965;-91
2022/08/05 01:03:38;;;;;;;11.87;7.30;;;;;;;;;;500455;29;1355;-91
2022/08/05 01:03:54;;;;;;;11.88;7.50;;;;;;;;;;501079;29;1100;-91
2022/08/05 01:04:09;;;;;;;12.18;7.85;;;;;;;;;;502509;29;1328;-91
2022/08/05 01:04:24;;;;;;;11.87;8.23;;;;;;;;;;503233;29;822;-90
2022/08/05 01:04:40;;;;;;;11.67;7.87;;;;;;;;;;504288;29;1224;-91
2022/08/05 01:04:55;;;;;;;11.45;7.25;;;;;;;;;;504305;29;1170;-91
2022/08/05 01:05:11;;;;;;;11.07;7.17;;;;;;;;;;504394;29;1218;-90
2022/08/05 01:05:27;;;;;;;11.15;7.43;;;;;;;;;;504917;29;893;-91
2022/08/05 01:05:42;;;;;;;10.13;7.10;;;;;;;;;;504070;29;1974;-89
2022/08/05 01:05:57;;;;;;;10.00;6.87;;;;;;;;;;504475;29;799;-90
2022/08/05 01:06:13;;;;;;;11.10;7.60;;;;;;;;;;502174;29;1312;-90
2022/08/05 01:06:28;;;;;;;10.98;7.90;;;;;;;;;;502360;29;1208;-91
2022/08/05 01:06:46;;;;;;;12.77;7.97;;;;;;;;;;502741;29;1325;-91
2022/08/05 01:07:02;;;;;;;14.65;8.13;;;;;;;;;;504442;29;890;-90
2022/08/05 01:07:17;;;;;;;13.38;7.97;;;;;;;;;;506471;29;1297;-90
2022/08/05 01:07:33;;;;;;;12.87;7.70;;;;;;;;;;506244;29;1231;-90
2022/08/05 01:07:48;;;;;;;12.13;7.38;;;;;;;;;;506275;29;1355;-91
2022/08/05 01:08:04;;;;;;;10.73;7.40;;;;;;;;;;506309;29;1193;-90
2022/08/05 01:08:20;;;;;;;10.18;7.20;;;;;;;;;;506274;29;1354;-90
2022/08/05 01:08:35;;;;;;;10.15;7.07;;;;;;;;;;508357;29;1310;-90
2022/08/05 01:08:52;;;;;;;11.17;7.70;;;;;;;;;;506313;29;1191;-90
2022/08/05 01:09:07;;;;;;;11.13;7.78;;;;;;;;;;504412;29;1290;-91
2022/08/05 01:09:23;;;;;;;9.87;7.47;;;;;;;;;;504243;29;1203;-90
2022/08/05 01:09:40;;;;;;;9.95;7.70;;;;;;;;;;504354;29;1246;-90
2022/08/05 01:09:55;;;;;;;11.77;7.88;;;;;;;;;;504426;29;889;-90
2022/08/05 01:10:14;;;;;;;12.85;7.82;;;;;;;;;;500446;29;1365;-89
2022/08/05 01:10:42;;;;;;;11.18;7.35;;;;;;;;;;502345;29;1256;-89
2022/08/05 01:11:03;;;;;;;11.20;7.38;;;;;;;;;;500527;29;1616;-90
2022/08/05 01:11:26;;;;;;;12.50;7.78;;;;;;;;;;501805;29;844;-90
2022/08/05 01:11:43;;;;;;;11.55;7.35;;;;;;;;;;502410;29;965;-89
2022/08/05 01:12:02;;;;;;;9.85;7.10;;;;;;;;;;500614;29;1319;-91
2022/08/05 01:12:23;;;;;;;10.45;7.10;;;;;;;;;;502576;29;1491;-90
2022/08/05 01:12:44;;;;;;;11.00;6.90;;;;;;;;;;506295;29;1071;-88
2022/08/05 01:13:09;;;;;;;10.55;7.15;;;;;;;;;;506316;29;1293;-89
2022/08/05 01:14:01;;;;;;;12.02;7.20;;;;;;;;;;506117;29;1368;-88
2022/08/05 01:14:25;;;;;;;11.45;7.80;;;;;;;;;;506287;29;1328;-88
2022/08/05 01:15:02;;;;;;;9.93;7.40;;;;;;;;;;502392;29;1433;-88
2022/08/05 01:15:22;;;;;;;11.27;7.60;;;;;;;;;;503190;29;1437;-88
2022/08/05 01:15:42;;;;;;;12.35;7.63;;;;;;;;;;504349;29;1279;-88
2022/08/05 01:16:02;;;;;;;13.18;7.82;;;;;;;;;;502436;29;1245;-88
2022/08/05 01:16:43;;;;;;;12.50;7.85;;;;;;;;;;502388;29;1462;-88
2022/08/05 01:17:03;;;;;;;11.68;7.80;;;;;;;;;;502476;29;885;-89
2022/08/05 01:17:37;;;;;;;11.68;7.85;;;;;;;;;;502387;29;1372;-88
2022/08/05 01:17:59;;;;;;;12.07;7.70;;;;;;;;;;503351;29;1221;-90
2022/08/05 01:18:22;;;;;;;12.35;7.72;;;;;;;;;;503653;29;1132;-90
2022/08/05 01:18:43;;;;;;;11.50;7.55;;;;;;;;;;502260;29;1395;-90
2022/08/05 01:19:09;;;;;;;10.80;7.25;;;;;;;;;;502518;29;1416;-90
2022/08/05 01:19:30;;;;;;;10.73;7.70;;;;;;;;;;500250;29;1543;-91
2022/08/05 01:20:00;;;;;;;11.05;7.90;;;;;;;;;;500526;29;1276;-91
2022/08/05 01:20:54;;;;;;;10.63;7.75;;;;;;;;;;503643;29;1246;-90
2022/08/05 01:21:15;;;;;;;10.00;7.20;;;;;;;;;;500336;29;1350;-90
2022/08/05 01:21:52;;;;;;;8.88;6.80;;;;;;;;;;500490;29;1299;-90
2022/08/05 01:22:22;;;;;;;9.88;7.20;;;;;;;;;;499165;29;914;-91
2022/08/05 01:23:00;;;;;;;10.65;7.70;;;;;;;;;;504202;29;1354;-90
2022/08/05 01:23:53;;;;;;;10.95;7.70;;;;;;;;;;503739;29;1283;-89
2022/08/05 01:24:56;;;;;;;9.13;7.22;;;;;;;;;;506294;29;1382;-90
2022/08/05 01:25:27;;;;;;;12.02;7.63;;;;;;;;;;502307;29;1326;-90
2022/08/05 01:26:19;;;;;;;11.55;7.90;;;;;;;;;;504067;29;1915;-90
2022/08/05 01:27:17;;;;;;;10.02;7.10;;;;;;;;;;504339;29;1280;-90
2022/08/05 01:27:44;;;;;;;11.10;7.70;;;;;;;;;;503256;29;1287;-90
2022/08/05 01:28:13;;;;;;;11.93;7.53;;;;;;;;;;504440;29;1239;-90
2022/08/05 01:29:13;;;;;;;11.38;7.78;;;;;;;;;;504399;29;1367;-90
2022/08/05 01:29:36;;;;;;;8.82;6.75;;;;;;;;;;500418;29;1328;-90
2022/08/05 01:29:57;;;;;;;10.27;6.88;;;;;;;;;;502982;29;1525;-90
2022/08/05 01:30:13;;;;;;;9.95;7.07;;;;;;;;;;502279;29;1383;-89
2022/08/05 01:30:33;;;;;;;9.80;7.60;;;;;;;;;;500544;29;1342;-90
2022/08/05 01:31:07;;;;;;;12.23;7.93;;;;;;;;;;500787;29;1288;-90
2022/08/05 01:31:36;;;;;;;9.52;7.28;;;;;;;;;;503480;29;799;-90
2022/08/05 01:31:55;;;;;;;9.38;7.13;;;;;;;;;;504212;29;1458;-90
2022/08/05 01:32:17;;;;;;;9.90;7.07;;;;;;;;;;504338;29;858;-90
2022/08/05 01:32:35;;;;;;;10.82;7.40;;;;;;;;;;506271;29;798;-91
2022/08/05 01:32:51;;;;;;;10.05;7.07;;;;;;;;;;506258;29;1420;-91
2022/08/05 01:33:09;;;;;;;10.90;7.78;;;;;;;;;;504609;29;1472;-90
2022/08/05 01:33:32;;;;;;;11.43;7.95;;;;;;;;;;504309;29;1560;-91
2022/08/05 01:33:55;;;;;;;14.05;8.10;;;;;;;;;;501870;29;1351;-91
2022/08/05 01:34:29;;;;;;;12.93;8.00;;;;;;;;;;503718;29;1266;-90
2022/08/05 01:34:49;;;;;;;11.20;8.05;;;;;;;;;;504378;29;861;-91
2022/08/05 01:35:08;;;;;;;10.05;7.80;;;;;;;;;;504209;29;1322;-89
2022/08/05 01:35:27;;;;;;;10.50;7.80;;;;;;;;;;505945;29;1409;-90
2022/08/05 01:35:46;;;;;;;11.27;8.18;;;;;;;;;;506275;29;1220;-90
2022/08/05 01:36:08;;;;;;;12.55;8.32;;;;;;;;;;504190;29;1325;-90
2022/08/05 01:36:28;;;;;;;11.32;7.88;;;;;;;;;;504308;29;942;-91
2022/08/05 01:36:51;;;;;;;11.70;7.60;;;;;;;;;;504275;29;912;-90
2022/08/05 01:37:21;;;;;;;11.65;7.90;;;;;;;;;;504229;29;1351;-90
2022/08/05 01:37:42;;;;;;;11.05;7.90;;;;;;;;;;505287;29;1339;-90
2022/08/05 01:38:00;;;;;;;12.02;7.40;;;;;;;;;;504275;29;1201;-90
2022/08/05 01:38:18;;;;;;;9.88;7.35;;;;;;;;;;504645;29;873;-90
2022/08/05 01:38:36;;;;;;;10.13;7.50;;;;;;;;;;504422;29;1431;-90
2022/08/05 01:38:53;;;;;;;10.43;7.75;;;;;;;;;;504403;29;1425;-90
2022/08/05 01:39:12;;;;;;;10.15;7.80;;;;;;;;;;502396;29;1244;-90
2022/08/05 01:39:30;;;;;;;10.13;7.57;;;;;;;;;;503106;29;1275;-90
2022/08/05 01:39:47;;;;;;;9.40;7.75;;;;;;;;;;504904;29;1019;-90
2022/08/05 01:40:04;;;;;;;11.50;8.18;;;;;;;;;;506795;29;1376;-91
2022/08/05 01:40:28;;;;;;;12.23;8.02;;;;;;;;;;504399;29;1354;-91
2022/08/05 01:40:45;;;;;;;11.63;8.18;;;;;;;;;;501172;29;944;-90
2022/08/05 01:41:02;;;;;;;12.85;8.48;;;;;;;;;;501069;29;1408;-90
2022/08/05 01:41:22;;;;;;;14.57;8.73;;;;;;;;;;501969;29;1251;-90
2022/08/05 01:41:39;;;;;;;12.85;8.57;;;;;;;;;;502248;29;1466;-90
2022/08/05 01:41:57;;;;;;;11.50;8.55;;;;;;;;;;502280;29;1325;-90
2022/08/05 01:42:15;;;;;;;11.23;8.40;;;;;;;;;;503087;29;1350;-90
2022/08/05 01:42:35;;;;;;;10.55;7.80;;;;;;;;;;503840;29;1347;-90
2022/08/05 01:42:52;;;;;;;10.48;7.65;;;;;;;;;;504183;29;1263;-90
2022/08/05 01:43:09;;;;;;;10.27;7.50;;;;;;;;;;500181;29;1247;-90
2022/08/05 01:43:25;;;;;;;11.43;8.20;;;;;;;;;;500323;29;1272;-90
2022/08/05 01:43:42;;;;;;;13.88;8.77;;;;;;;;;;502263;29;1287;-90
2022/08/05 01:43:59;;;;;;;15.07;9.15;;;;;;;;;;502599;29;857;-90
2022/08/05 01:44:16;;;;;;;14.32;9.48;;;;;;;;;;502467;29;838;-91
2022/08/05 01:44:33;;;;;;;12.13;8.98;;;;;;;;;;506348;29;1450;-91
2022/08/05 01:44:52;;;;;;;12.07;8.70;;;;;;;;;;506314;29;1310;-90
2022/08/05 01:45:08;;;;;;;12.32;8.43;;;;;;;;;;508063;29;1303;-91
2022/08/05 01:45:26;;;;;;;11.80;8.20;;;;;;;;;;506260;29;1279;-91
2022/08/05 01:45:42;;;;;;;11.73;8.18;;;;;;;;;;506192;29;1964;-90
2022/08/05 01:45:58;;;;;;;13.52;8.60;;;;;;;;;;504546;29;1429;-90
2022/08/05 01:46:14;;;;;;;12.27;8.77;;;;;;;;;;504297;29;1200;-91
2022/08/05 01:46:31;;;;;;;11.00;8.63;;;;;;;;;;500397;29;1251;-90
2022/08/05 01:46:47;;;;;;;11.55;8.02;;;;;;;;;;502207;29;1315;-91
2022/08/05 01:47:03;;;;;;;12.20;7.68;;;;;;;;;;502243;29;1403;-89
2022/08/05 01:47:19;;;;;;;12.18;8.13;;;;;;;;;;504341;29;1394;-91
2022/08/05 01:47:37;;;;;;;11.57;8.50;;;;;;;;;;504196;29;1371;-90
2022/08/05 01:47:54;;;;;;;11.00;8.02;;;;;;;;;;506045;29;1410;-90
2022/08/05 01:48:10;;;;;;;10.35;7.85;;;;;;;;;;506373;29;933;-90
2022/08/05 01:48:27;;;;;;;11.68;8.07;;;;;;;;;;504998;29;921;-89
2022/08/05 01:48:45;;;;;;;11.80;8.10;;;;;;;;;;503745;29;1503;-91
2022/08/05 01:49:02;;;;;;;12.40;7.90;;;;;;;;;;502291;29;1272;-90
2022/08/05 01:49:21;;;;;;;12.70;8.18;;;;;;;;;;504373;29;1493;-91
2022/08/05 01:49:40;;;;;;;11.95;8.50;;;;;;;;;;504212;29;1348;-90
2022/08/05 01:49:57;;;;;;;10.70;8.10;;;;;;;;;;506277;29;1313;-90
2022/08/05 01:50:19;;;;;;;11.35;8.25;;;;;;;;;;504366;29;1328;-91
2022/08/05 01:50:39;;;;;;;12.25;8.48;;;;;;;;;;504218;29;1398;-90